createdAt,value
2022-08-07T00:02:35.435Z,102247.84
2022-08-07T00:04:09.493Z,102252.09
2022-08-07T00:06:41.126Z,102247.31
2022-08-07T00:09:22.637Z,102251.59
2022-08-07T00:11:56.069Z,102240.69
2022-08-07T00:14:31.038Z,102243.16
2022-08-07T00:17:01.702Z,102234.66
2022-08-07T00:20:00.173Z,102233.66
2022-08-07T00:22:24.860Z,102223.03
2022-08-07T00:25:11.172Z,102225.31
2022-08-07T00:27:53.274Z,102218.97
2022-08-07T00:30:27.382Z,102223.38
2022-08-07T00:33:01.063Z,102218.72
2022-08-07T00:35:30.482Z,102215.13
2022-08-07T00:38:01.675Z,102213.69
2022-08-07T00:40:39.687Z,102202.91
2022-08-07T00:44:00.854Z,102197.41
2022-08-07T00:46:02.245Z,102197.53
2022-08-07T00:48:32.199Z,102193.13
2022-08-07T00:51:01.246Z,102193.13
2022-08-07T00:53:38.404Z,102191.16
2022-08-07T00:56:13.888Z,102185.06
2022-08-07T00:58:46.579Z,102173.69
2022-08-07T01:01:17.538Z,102165.84
2022-08-07T01:03:56.283Z,102159.75
2022-08-07T01:06:30.024Z,102166.38
2022-08-07T01:09:01.179Z,102152.31
2022-08-07T01:12:26.539Z,102147.63
2022-08-07T01:14:21.118Z,102146.53
2022-08-07T01:16:56.343Z,102144.69
2022-08-07T01:19:26.823Z,102132.06
2022-08-07T01:21:55.675Z,102120.31
2022-08-07T01:24:31.026Z,102125.56
2022-08-07T01:27:00.860Z,102112.25
2022-08-07T01:29:33.945Z,102120.31
2022-08-07T01:32:05.427Z,102113.34
2022-08-07T01:34:34.275Z,102117.16
2022-08-07T01:37:17.232Z,102112.03
2022-08-07T01:39:48.106Z,102128.19
2022-08-07T01:42:40.292Z,102122.81
2022-08-07T01:45:18.232Z,102130.63
2022-08-07T01:48:29.896Z,102136.00
2022-08-07T01:50:46.949Z,102142.13
2022-08-07T01:53:21.902Z,102134.91
2022-08-07T01:56:15.019Z,102143.56
2022-08-07T01:59:01.125Z,102151.53
2022-08-07T02:02:01.691Z,102143.06
2022-08-07T02:04:28.848Z,102147.44
2022-08-07T02:07:03.099Z,102129.44
2022-08-07T02:09:51.818Z,102124.19
2022-08-07T02:12:29.310Z,102114.25
2022-08-07T02:15:01.717Z,102115.97
2022-08-07T02:17:49.481Z,102125.03
2022-08-07T02:20:23.366Z,102131.28
2022-08-07T02:22:59.826Z,102132.13
2022-08-07T02:26:10.021Z,102134.81
2022-08-07T02:28:25.459Z,102135.56
2022-08-07T02:30:59.145Z,102151.59
2022-08-07T02:33:42.166Z,102155.75
2022-08-07T02:36:29.776Z,102149.34
2022-08-07T02:39:16.082Z,102147.50
2022-08-07T02:41:54.329Z,102139.41
2022-08-07T02:44:27.730Z,102150.09
2022-08-07T02:47:06.174Z,102150.94
2022-08-07T02:49:58.572Z,102150.09
2022-08-07T02:52:37.582Z,102144.81
2022-08-07T02:55:28.033Z,102142.97
2022-08-07T02:58:06.686Z,102151.03
2022-08-07T03:00:40.881Z,102141.00
2022-08-07T03:03:22.614Z,102142.84
2022-08-07T03:05:54.865Z,102148.34
2022-08-07T03:08:29.133Z,102147.38
2022-08-07T03:10:59.748Z,102147.38
2022-08-07T03:13:39.026Z,102151.78
2022-08-07T03:16:18.018Z,102166.09
2022-08-07T03:18:52.302Z,102150.78
2022-08-07T03:21:20.841Z,102166.00
2022-08-07T03:24:19.036Z,102156.19
2022-08-07T03:26:58.358Z,102161.56
2022-08-07T03:29:38.719Z,102157.06
2022-08-07T03:32:15.914Z,102158.03
2022-08-07T03:35:16.937Z,102153.63
2022-08-07T03:37:46.470Z,102160.97
2022-08-07T03:40:30.805Z,102152.47
2022-08-07T03:43:10.031Z,102148.28
2022-08-07T03:45:47.582Z,102141.47
2022-08-07T03:48:18.701Z,102132.53
2022-08-07T03:50:56.169Z,102142.56
2022-08-07T03:54:05.915Z,102137.19
2022-08-07T03:56:33.362Z,102131.09
2022-08-07T03:59:12.810Z,102125.13
2022-08-07T04:01:46.143Z,102129.78
2022-08-07T04:04:17.963Z,102126.97
2022-08-07T04:06:50.862Z,102116.31
2022-08-07T04:09:23.313Z,102122.69
2022-08-07T04:12:26.748Z,102126.34
2022-08-07T04:14:47.739Z,102121.97
2022-08-07T04:17:20.962Z,102121.09
2022-08-07T04:19:53.974Z,102123.22
2022-08-07T04:22:29.306Z,102122.47
2022-08-07T04:25:02.137Z,102121.88
2022-08-07T04:27:36.256Z,102128.53
2022-08-07T04:30:35.928Z,102120.97
2022-08-07T04:33:24.343Z,102122.81
2022-08-07T04:35:54.484Z,102118.53
2022-08-07T04:38:28.301Z,102120.38
2022-08-07T04:40:57.997Z,102120.63
2022-08-07T04:44:12.334Z,102123.44
2022-08-07T04:46:59.398Z,102128.72
2022-08-07T04:49:40.293Z,102128.72
2022-08-07T04:52:55.946Z,102131.66
2022-08-07T04:58:11.155Z,102128.97
2022-08-07T04:59:09.210Z,102138.53
2022-08-07T05:01:31.454Z,102130.59
2022-08-07T05:04:07.589Z,102123.50
2022-08-07T05:06:51.529Z,102127.88
2022-08-07T05:09:46.282Z,102135.25
2022-08-07T05:12:27.268Z,102133.50
2022-08-07T05:15:21.693Z,102138.81
2022-08-07T05:18:08.765Z,102138.03
2022-08-07T05:20:42.869Z,102122.66
2022-08-07T05:23:30.904Z,102118.13
2022-08-07T05:26:13.471Z,102125.19
2022-08-07T05:28:57.485Z,102133.16
2022-08-07T05:31:34.972Z,102130.47
2022-08-07T05:34:11.932Z,102127.63
2022-08-07T05:36:48.983Z,102127.53
2022-08-07T05:40:16.797Z,102134.50
2022-08-07T05:42:37.003Z,102135.94
2022-08-07T05:45:25.783Z,102127.59
2022-08-07T05:48:01.913Z,102127.47
2022-08-07T05:50:39.494Z,102128.19
2022-08-07T05:54:12.731Z,102129.53
2022-08-07T05:56:03.085Z,102130.13
2022-08-07T05:58:37.612Z,102129.13
2022-08-07T06:01:12.348Z,102136.09
2022-08-07T06:03:56.410Z,102129.72
2022-08-07T06:06:29.792Z,102134.97
2022-08-07T06:09:04.706Z,102133.84
2022-08-07T06:11:36.125Z,102128.19
2022-08-07T06:14:13.255Z,102118.16
2022-08-07T06:16:56.205Z,102121.84
2022-08-07T06:19:49.927Z,102130.50
2022-08-07T06:22:23.817Z,102123.28
2022-08-07T06:25:34.785Z,102130.09
2022-08-07T06:28:08.909Z,102127.28
2022-08-07T06:30:45.821Z,102143.06
2022-08-07T06:33:20.256Z,102136.66
2022-08-07T06:36:06.798Z,102136.41
2022-08-07T06:38:59.475Z,102131.59
2022-08-07T06:42:35.311Z,102125.50
2022-08-07T06:45:17.880Z,102125.38
2022-08-07T06:47:58.967Z,102125.25
2022-08-07T06:50:47.770Z,102120.44
2022-08-07T06:55:29.149Z,102116.75
2022-08-07T06:56:15.105Z,102122.59
2022-08-07T07:00:13.579Z,102121.19
2022-08-07T07:01:42.001Z,102119.09
2022-08-07T07:04:32.659Z,102124.66
2022-08-07T07:07:10.416Z,102122.28
2022-08-07T07:09:48.793Z,102127.00
2022-08-07T07:12:30.700Z,102125.78
2022-08-07T07:15:23.941Z,102140.97
2022-08-07T07:18:14.733Z,102145.50
2022-08-07T07:21:13.671Z,102138.53
2022-08-07T07:24:05.930Z,102142.09
2022-08-07T07:26:39.737Z,102141.34
2022-08-07T07:29:39.867Z,102141.97
2022-08-07T07:32:08.275Z,102148.22
2022-08-07T07:34:40.747Z,102148.06
2022-08-07T07:37:21.650Z,102145.38
2022-08-07T07:40:14.575Z,102150.63
2022-08-07T07:42:47.131Z,102152.91
2022-08-07T07:46:35.743Z,102146.69
2022-08-07T07:48:34.871Z,102146.88
2022-08-07T07:51:08.116Z,102142.16
2022-08-07T07:53:51.409Z,102155.25
2022-08-07T07:56:30.409Z,102144.19
2022-08-07T07:59:04.371Z,102142.94
2022-08-07T08:02:03.776Z,102128.44
2022-08-07T08:04:28.045Z,102140.66
2022-08-07T08:06:56.384Z,102140.66
2022-08-07T08:09:29.955Z,102147.03
2022-08-07T08:12:03.060Z,102148.91
2022-08-07T08:14:37.022Z,102145.94
2022-08-07T08:17:56.265Z,102148.47
2022-08-07T08:20:17.115Z,102148.34
2022-08-07T08:23:14.421Z,102144.94
2022-08-07T08:26:06.961Z,102142.28
2022-08-07T08:28:44.880Z,102141.44
2022-08-07T08:31:29.874Z,102132.78
2022-08-07T08:33:59.112Z,102144.16
2022-08-07T08:36:30.315Z,102144.16
2022-08-07T08:39:01.942Z,102138.53
2022-08-07T08:41:59.427Z,102136.81
2022-08-07T08:44:48.696Z,102139.47
2022-08-07T08:47:47.455Z,102146.03
2022-08-07T08:50:39.570Z,102136.16
2022-08-07T08:53:41.354Z,102146.84
2022-08-07T08:56:16.852Z,102135.44
2022-08-07T08:59:06.480Z,102134.44
2022-08-07T09:01:49.142Z,102136.38
2022-08-07T09:04:36.704Z,102137.94
2022-08-07T09:07:45.944Z,102144.38
2022-08-07T09:10:21.473Z,102140.00
2022-08-07T09:13:11.029Z,102142.56
2022-08-07T09:16:24.755Z,102151.97
2022-08-07T09:18:58.393Z,102150.69
2022-08-07T09:22:22.656Z,102150.97
2022-08-07T09:25:14.511Z,102152.00
2022-08-07T09:27:54.518Z,102153.13
2022-08-07T09:30:40.379Z,102155.09
2022-08-07T09:33:57.580Z,102153.28
2022-08-07T09:36:37.022Z,102150.41
2022-08-07T09:39:55.489Z,102154.13
2022-08-07T09:42:52.832Z,102163.09
2022-08-07T09:47:42.586Z,102152.97
2022-08-07T09:50:02.458Z,102150.84
2022-08-07T09:52:15.973Z,102159.06
2022-08-07T09:54:47.911Z,102147.50
2022-08-07T09:57:46.451Z,102154.31
2022-08-07T10:00:20.619Z,102156.94
2022-08-07T10:04:05.331Z,102156.38
2022-08-07T10:06:19.695Z,102146.44
2022-08-07T10:09:10.458Z,102162.50
2022-08-07T10:12:52.914Z,102159.03
2022-08-07T10:15:46.426Z,102177.31
2022-08-07T10:18:32.318Z,102174.53
2022-08-07T10:22:13.972Z,102178.84
2022-08-07T10:24:59.742Z,102175.56
2022-08-07T10:27:30.257Z,102170.59
2022-08-07T10:30:20.406Z,102182.00
2022-08-07T10:33:03.470Z,102175.91
2022-08-07T10:35:55.724Z,102180.59
2022-08-07T10:38:48.716Z,102185.00
2022-08-07T10:41:52.368Z,102182.16
2022-08-07T10:44:54.601Z,102175.63
2022-08-07T10:47:54.463Z,102182.13
2022-08-07T10:50:35.600Z,102176.06
2022-08-07T10:53:25.107Z,102186.44
2022-08-07T10:56:30.838Z,102177.72
2022-08-07T10:59:15.666Z,102176.03
2022-08-07T11:02:33.358Z,102165.03
2022-08-07T11:05:19.283Z,102178.84
2022-08-07T11:08:02.793Z,102175.06
2022-08-07T11:11:00.096Z,102167.66
2022-08-07T11:14:44.215Z,102169.75
2022-08-07T11:16:52.801Z,102171.06
2022-08-07T11:19:50.244Z,102167.13
2022-08-07T11:22:43.977Z,102167.38
2022-08-07T11:25:19.775Z,102170.88
2022-08-07T11:28:04.881Z,102179.59
2022-08-07T11:30:48.160Z,102176.00
2022-08-07T11:33:54.047Z,102180.91
2022-08-07T11:36:30.800Z,102183.94
2022-08-07T11:39:01.851Z,102183.06
2022-08-07T11:42:02.018Z,102187.00
2022-08-07T11:44:34.456Z,102190.75
2022-08-07T11:47:38.522Z,102192.13
2022-08-07T11:50:32.274Z,102184.31
2022-08-07T11:53:09.897Z,102203.34
2022-08-07T11:56:25.715Z,102196.94
2022-08-07T12:00:08.047Z,102191.31
2022-08-07T12:02:30.513Z,102200.13
2022-08-07T12:05:41.745Z,102190.47
2022-08-07T12:08:38.533Z,102206.03
2022-08-07T12:11:21.386Z,102204.91
2022-08-07T12:14:08.514Z,102209.84
2022-08-07T12:16:52.088Z,102207.03
2022-08-07T12:20:04.744Z,102213.94
2022-08-07T12:22:58.433Z,102218.13
2022-08-07T12:26:05.837Z,102209.69
2022-08-07T12:28:53.853Z,102206.78
2022-08-07T12:31:52.985Z,102212.16
2022-08-07T12:34:21.321Z,102214.69
2022-08-07T12:36:54.764Z,102220.38
2022-08-07T12:39:44.049Z,102233.66
2022-08-07T12:42:22.783Z,102216.31
2022-08-07T12:45:28.545Z,102217.44
2022-08-07T12:48:28.500Z,102223.47
2022-08-07T12:51:17.550Z,102230.66
2022-08-07T12:54:03.321Z,102232.41
2022-08-07T12:56:51.425Z,102234.00
2022-08-07T12:59:37.105Z,102237.44
2022-08-07T13:03:01.061Z,102240.66
2022-08-07T13:06:03.524Z,102240.63
2022-08-07T13:09:12.694Z,102240.31
2022-08-07T13:12:02.099Z,102255.09
2022-08-07T13:15:01.913Z,102246.53
2022-08-07T13:17:46.875Z,102241.09
2022-08-07T13:20:27.759Z,102255.41
2022-08-07T13:24:00.064Z,102240.31
2022-08-07T13:26:00.878Z,102261.50
2022-08-07T13:28:38.154Z,102249.00
2022-08-07T13:31:13.256Z,102254.59
2022-08-07T13:34:31.778Z,102251.94
2022-08-07T13:36:47.766Z,102249.16
2022-08-07T13:40:32.716Z,102259.25
2022-08-07T13:42:26.933Z,102244.72
2022-08-07T13:46:06.187Z,102242.03
2022-08-07T13:48:05.530Z,102256.06
2022-08-07T13:50:45.082Z,102251.16
2022-08-07T13:53:59.882Z,102249.41
2022-08-07T13:56:35.980Z,102256.88
2022-08-07T13:59:15.833Z,102256.84
2022-08-07T14:01:59.401Z,102249.63
2022-08-07T14:04:49.557Z,102262.19
2022-08-07T14:07:23.090Z,102261.72
2022-08-07T14:10:14.966Z,102267.41
2022-08-07T14:13:00.589Z,102276.19
2022-08-07T14:15:32.025Z,102266.28
2022-08-07T14:18:24.041Z,102268.75
2022-08-07T14:21:21.050Z,102271.53
2022-08-07T14:24:12.870Z,102270.19
2022-08-07T14:26:51.132Z,102272.53
2022-08-07T14:30:09.509Z,102274.00
2022-08-07T14:32:21.640Z,102270.09
2022-08-07T14:34:54.518Z,102275.31
2022-08-07T14:37:23.733Z,102273.66
2022-08-07T14:40:26.284Z,102277.47
2022-08-07T14:43:55.467Z,102282.81
2022-08-07T14:46:00.883Z,102272.81
2022-08-07T14:48:35.911Z,102271.16
2022-08-07T14:54:09.992Z,102286.00
2022-08-07T14:56:52.303Z,102279.19
2022-08-07T15:00:05.568Z,102285.69
2022-08-07T15:02:32.024Z,102288.72
2022-08-07T15:05:04.495Z,102284.75
2022-08-07T15:08:01.173Z,102274.09
2022-08-07T15:10:58.571Z,102275.41
2022-08-07T15:13:35.872Z,102277.50
2022-08-07T15:16:11.428Z,102271.72
2022-08-07T15:18:51.683Z,102271.31
2022-08-07T15:21:44.205Z,102279.00
2022-08-07T15:25:14.758Z,102284.59
2022-08-07T15:27:34.291Z,102290.31
2022-08-07T15:36:01.176Z,102287.09
2022-08-07T15:38:59.040Z,102296.16
2022-08-07T15:44:19.701Z,102286.88
2022-08-07T15:50:06.077Z,102289.94
2022-08-07T15:52:38.231Z,102294.47
2022-08-07T15:55:12.173Z,102293.38
2022-08-07T15:57:48.624Z,102289.59
2022-08-07T16:00:30.987Z,102283.16
2022-08-07T16:03:20.977Z,102287.97
2022-08-07T16:06:07.103Z,102293.06
2022-08-07T16:08:42.642Z,102292.09
2022-08-07T16:11:48.957Z,102291.19
2022-08-07T16:14:32.154Z,102306.63
2022-08-07T16:18:01.624Z,102306.94
2022-08-07T16:20:34.248Z,102293.78
2022-08-07T16:23:54.557Z,102285.41
2022-08-07T16:26:30.722Z,102285.81
2022-08-07T16:30:05.550Z,102290.69
2022-08-07T16:32:03.918Z,102286.41
2022-08-07T16:34:49.849Z,102282.63
2022-08-07T16:38:04.777Z,102282.53
2022-08-07T16:41:12.034Z,102285.41
2022-08-07T16:44:31.803Z,102282.00
2022-08-07T16:47:11.866Z,102287.28
2022-08-07T16:50:27.837Z,102284.56
2022-08-07T16:54:02.343Z,102290.66
2022-08-07T16:56:20.816Z,102293.69
2022-08-07T16:59:10.698Z,102300.63
2022-08-07T17:02:14.181Z,102297.13
2022-08-07T17:06:02.225Z,102303.47
2022-08-07T17:09:10.891Z,102304.44
2022-08-07T17:12:34.509Z,102294.25
2022-08-07T17:15:03.469Z,102296.56
2022-08-07T17:17:47.332Z,102302.38
2022-08-07T17:20:41.895Z,102304.63
2022-08-07T17:23:32.471Z,102299.53
2022-08-07T17:26:24.318Z,102309.66
2022-08-07T17:28:58.074Z,102304.22
2022-08-07T17:31:44.449Z,102303.69
2022-08-07T17:34:57.200Z,102308.13
2022-08-07T17:38:09.412Z,102302.72
2022-08-07T17:40:30.254Z,102311.16
2022-08-07T17:43:18.539Z,102317.97
2022-08-07T17:46:08.262Z,102311.75
2022-08-07T17:48:49.563Z,102310.59
2022-08-07T17:51:24.389Z,102321.69
2022-08-07T17:54:29.538Z,102319.22
2022-08-07T17:57:58.679Z,102325.91
2022-08-07T18:00:48.998Z,102328.91
2022-08-07T18:04:04.673Z,102323.22
2022-08-07T18:06:38.119Z,102330.75
2022-08-07T18:09:08.623Z,102324.13
2022-08-07T18:12:16.451Z,102333.91
2022-08-07T18:14:54.537Z,102339.78
2022-08-07T18:18:45.046Z,102345.22
2022-08-07T18:21:07.067Z,102336.38
2022-08-07T18:24:02.727Z,102339.84
2022-08-07T18:27:01.993Z,102339.13
2022-08-07T18:30:07.391Z,102341.47
2022-08-07T18:33:11.062Z,102348.88
2022-08-07T18:36:08.135Z,102351.66
2022-08-07T18:38:57.071Z,102359.69
2022-08-07T18:41:46.281Z,102353.84
2022-08-07T18:45:43.415Z,102362.53
2022-08-07T18:48:05.701Z,102363.97
2022-08-07T18:50:56.134Z,102354.16
2022-08-07T18:53:36.600Z,102354.16
2022-08-07T18:56:38.975Z,102358.75
2022-08-07T18:59:47.981Z,102365.91
2022-08-07T19:02:52.552Z,102361.78
2022-08-07T19:06:02.819Z,102369.66
2022-08-07T19:08:31.305Z,102365.41
2022-08-07T19:11:06.850Z,102365.28
2022-08-07T19:13:52.801Z,102364.03
2022-08-07T19:17:05.460Z,102361.44
2022-08-07T19:19:46.787Z,102355.31
2022-08-07T19:22:36.204Z,102355.03
2022-08-07T19:26:22.644Z,102358.59
2022-08-07T19:28:29.693Z,102364.00
2022-08-07T19:31:42.837Z,102367.69
2022-08-07T19:34:33.991Z,102369.38
2022-08-07T19:37:17.801Z,102372.63
2022-08-07T19:39:57.481Z,102366.06
2022-08-07T19:42:31.719Z,102384.53
2022-08-07T19:46:04.874Z,102381.41
2022-08-07T19:48:02.891Z,102382.06
2022-08-07T19:50:44.117Z,102385.19
2022-08-07T19:54:33.903Z,102394.84
2022-08-07T19:56:58.592Z,102397.47
2022-08-07T19:58:58.401Z,102385.50
2022-08-07T20:01:52.863Z,102386.16
2022-08-07T20:04:32.237Z,102383.13
2022-08-07T20:07:10.033Z,102395.06
2022-08-07T20:10:36.511Z,102384.94
2022-08-07T20:12:42.879Z,102381.91
2022-08-07T20:15:22.037Z,102385.88
2022-08-07T20:18:01.729Z,102397.94
2022-08-07T20:20:33.411Z,102402.00
2022-08-07T20:23:23.419Z,102408.50
2022-08-07T20:25:56.184Z,102405.97
2022-08-07T20:28:29.972Z,102406.22
2022-08-07T20:30:59.328Z,102408.28
2022-08-07T20:33:37.929Z,102395.22
2022-08-07T20:36:09.852Z,102402.56
2022-08-07T20:38:53.294Z,102406.41
2022-08-07T20:41:28.964Z,102400.28
2022-08-07T20:44:10.436Z,102400.28
2022-08-07T20:46:43.731Z,102398.56
2022-08-07T20:49:58.976Z,102401.66
2022-08-07T20:52:17.281Z,102406.69
2022-08-07T20:54:53.213Z,102408.94
2022-08-07T20:57:28.125Z,102418.38
2022-08-07T21:00:09.526Z,102418.03
2022-08-07T21:02:58.710Z,102428.31
2022-08-07T21:05:51.019Z,102428.22
2022-08-07T21:08:36.891Z,102425.06
2022-08-07T21:11:10.733Z,102432.56
2022-08-07T21:14:16.665Z,102436.72
2022-08-07T21:17:06.524Z,102434.53
2022-08-07T21:19:50.780Z,102423.13
2022-08-07T21:22:20.826Z,102428.66
2022-08-07T21:25:13.769Z,102430.63
2022-08-07T21:27:47.315Z,102437.97
2022-08-07T21:30:18.979Z,102439.09
2022-08-07T21:33:04.477Z,102439.31
2022-08-07T21:36:04.476Z,102447.66
2022-08-07T21:39:46.809Z,102443.75
2022-08-07T21:42:37.541Z,102447.06
2022-08-07T21:46:05.436Z,102445.56
2022-08-07T21:48:28.743Z,102454.25
2022-08-07T21:51:25.051Z,102453.91
2022-08-07T21:54:20.108Z,102449.38
2022-08-07T21:57:15.888Z,102444.63
2022-08-07T22:00:22.213Z,102447.91
2022-08-07T22:02:58.341Z,102449.97
2022-08-07T22:05:46.157Z,102454.63
2022-08-07T22:08:23.367Z,102464.91
2022-08-07T22:10:57.983Z,102451.69
2022-08-07T22:13:50.907Z,102462.84
2022-08-07T22:16:44.259Z,102458.31
2022-08-07T22:19:29.484Z,102453.97
2022-08-07T22:22:20.920Z,102456.06
2022-08-07T22:24:55.172Z,102453.94
2022-08-07T22:28:07.801Z,102455.91
2022-08-07T22:31:45.078Z,102450.78
2022-08-07T22:34:13.667Z,102450.03
2022-08-07T22:36:52.517Z,102445.72
2022-08-07T22:39:23.943Z,102452.22
2022-08-07T22:42:19.590Z,102454.06
2022-08-07T22:45:03.748Z,102459.78
2022-08-07T22:47:31.791Z,102454.16
2022-08-07T22:50:07.170Z,102450.84
2022-08-07T22:52:39.902Z,102448.50
2022-08-07T22:55:39.967Z,102443.25
2022-08-07T22:58:28.033Z,102452.41
2022-08-07T23:01:22.256Z,102455.56
2022-08-07T23:04:57.967Z,102453.09
2022-08-07T23:07:41.527Z,102456.63
2022-08-07T23:10:41.116Z,102474.38
2022-08-07T23:13:21.389Z,102469.97
2022-08-07T23:16:48.400Z,102459.22
2022-08-07T23:19:47.998Z,102477.16
2022-08-07T23:22:49.769Z,102481.47
2022-08-07T23:25:31.928Z,102476.38
2022-08-07T23:28:33.360Z,102481.69
2022-08-07T23:32:49.528Z,102474.72
2022-08-07T23:34:41.134Z,102476.94
2022-08-07T23:38:00.915Z,102474.28
2022-08-07T23:40:33.980Z,102480.03
2022-08-07T23:43:16.922Z,102483.25
2022-08-07T23:46:11.152Z,102477.38
2022-08-07T23:49:20.106Z,102467.13
2022-08-07T23:53:00.046Z,102472.13
2022-08-07T23:54:53.008Z,102471.03
2022-08-07T23:57:28.185Z,102473.50
